createdAt,value
2016-10-24T00:00:58.625Z,19.21
2016-10-24T00:02:09.785Z,19.21
2016-10-24T00:03:20.985Z,19.22
2016-10-24T00:04:32.166Z,19.19
2016-10-24T00:05:43.329Z,19.11
2016-10-24T00:06:55.034Z,19.19
2016-10-24T00:08:06.225Z,19.22
2016-10-24T00:09:17.394Z,19.23
2016-10-24T00:10:28.529Z,19.16
2016-10-24T00:11:39.718Z,19.11
2016-10-24T00:12:50.887Z,19.1
2016-10-24T00:14:02.055Z,19.16
2016-10-24T00:15:13.209Z,19.14
2016-10-24T00:16:24.379Z,19.18
2016-10-24T00:17:35.544Z,19.22
2016-10-24T00:18:46.754Z,19.21
2016-10-24T00:19:57.925Z,19.21
2016-10-24T00:21:09.108Z,19.33
2016-10-24T00:22:20.288Z,19.23
2016-10-24T00:23:31.493Z,19.25
2016-10-24T00:24:42.697Z,19.19
2016-10-24T00:25:53.842Z,19.25
2016-10-24T00:27:04.979Z,19.32
2016-10-24T00:28:16.124Z,19.25
2016-10-24T00:29:27.308Z,19.33
2016-10-24T00:30:38.463Z,19.31
2016-10-24T00:31:49.651Z,19.32
2016-10-24T00:33:00.793Z,19.39
2016-10-24T00:34:12.527Z,19.4
2016-10-24T00:35:23.692Z,19.4
2016-10-24T00:36:34.880Z,19.4
2016-10-24T00:37:46.064Z,19.39
2016-10-24T00:38:57.188Z,19.37
2016-10-24T00:40:08.336Z,19.43
2016-10-24T00:41:19.498Z,19.43
2016-10-24T00:42:30.725Z,19.54
2016-10-24T00:43:41.869Z,19.5
2016-10-24T00:44:53.055Z,19.5
2016-10-24T00:46:04.209Z,19.47
2016-10-24T00:47:15.382Z,19.39
2016-10-24T00:48:26.526Z,19.5
2016-10-24T00:49:37.721Z,19.43
2016-10-24T00:50:48.900Z,19.51
2016-10-24T00:52:00.080Z,19.46
2016-10-24T00:53:11.245Z,19.44
2016-10-24T00:54:22.401Z,19.61
2016-10-24T00:55:33.537Z,19.54
2016-10-24T00:56:45.258Z,19.46
2016-10-24T00:57:56.452Z,19.4
2016-10-24T00:59:07.604Z,19.47
2016-10-24T01:00:19.330Z,19.46
2016-10-24T01:01:30.503Z,19.43
2016-10-24T01:02:41.643Z,19.39
2016-10-24T01:03:52.805Z,19.44
2016-10-24T01:05:03.974Z,19.4
2016-10-24T01:06:15.147Z,19.46
2016-10-24T01:07:26.331Z,19.48
2016-10-24T01:08:37.492Z,19.47
2016-10-24T01:09:48.657Z,19.51
2016-10-24T01:10:59.811Z,19.44
2016-10-24T01:12:10.969Z,19.47
2016-10-24T01:13:22.133Z,19.47
2016-10-24T01:14:33.308Z,19.47
2016-10-24T01:15:44.462Z,19.4
2016-10-24T01:16:55.659Z,19.36
2016-10-24T01:18:06.801Z,19.36
2016-10-24T01:19:17.966Z,19.43
2016-10-24T01:20:29.179Z,19.4
2016-10-24T01:21:40.329Z,19.4
2016-10-24T01:22:51.516Z,19.47
2016-10-24T01:24:02.693Z,19.47
2016-10-24T01:25:13.894Z,19.47
2016-10-24T01:26:25.635Z,19.31
2016-10-24T01:27:36.786Z,19.4
2016-10-24T01:28:47.989Z,19.36
2016-10-24T01:29:59.156Z,19.43
2016-10-24T01:31:10.359Z,19.44
2016-10-24T01:32:21.526Z,19.4
2016-10-24T01:33:32.739Z,19.39
2016-10-24T01:34:43.913Z,19.44
2016-10-24T01:35:55.065Z,19.43
2016-10-24T01:37:06.221Z,19.48
2016-10-24T01:38:17.383Z,19.47
2016-10-24T01:39:28.553Z,19.5
2016-10-24T01:40:39.728Z,19.48
2016-10-24T01:41:50.878Z,19.46
2016-10-24T01:43:02.072Z,19.46
2016-10-24T01:44:13.241Z,19.43
2016-10-24T01:45:24.427Z,19.47
2016-10-24T01:46:35.590Z,19.46
2016-10-24T01:47:46.759Z,19.5
2016-10-24T01:48:57.911Z,19.4
2016-10-24T01:50:09.073Z,19.61
2016-10-24T01:51:20.243Z,19.56
2016-10-24T01:52:31.380Z,19.59
2016-10-24T01:53:42.581Z,19.56
2016-10-24T01:54:53.778Z,19.65
2016-10-24T01:56:04.957Z,19.65
2016-10-24T01:57:16.170Z,19.62
2016-10-24T01:58:27.321Z,19.62
2016-10-24T01:59:38.471Z,19.65
2016-10-24T02:00:49.641Z,19.55
2016-10-24T02:02:00.838Z,19.55
2016-10-24T02:03:12.004Z,19.51
2016-10-24T02:04:23.155Z,19.48
2016-10-24T02:05:34.325Z,19.48
2016-10-24T02:06:45.515Z,19.59
2016-10-24T02:07:56.693Z,19.56
2016-10-24T02:09:07.855Z,19.61
2016-10-24T02:10:19.571Z,19.58
2016-10-24T02:11:30.744Z,19.65
2016-10-24T02:12:41.900Z,19.59
2016-10-24T02:13:53.099Z,19.68
2016-10-24T02:15:04.289Z,19.58
2016-10-24T02:16:15.509Z,19.68
2016-10-24T02:17:26.688Z,19.63
2016-10-24T02:18:37.841Z,19.63
2016-10-24T02:19:49.005Z,19.62
2016-10-24T02:21:00.708Z,19.61
2016-10-24T02:22:11.878Z,19.65
2016-10-24T02:23:23.038Z,19.62
2016-10-24T02:24:34.201Z,19.58
2016-10-24T02:25:45.940Z,19.63
2016-10-24T02:26:57.089Z,19.62
2016-10-24T02:28:08.270Z,19.63
2016-10-24T02:29:19.433Z,19.65
2016-10-24T02:30:30.609Z,19.65
2016-10-24T02:31:41.765Z,19.69
2016-10-24T02:32:52.923Z,19.62
2016-10-24T02:34:04.090Z,19.59
2016-10-24T02:35:15.265Z,19.68
2016-10-24T02:36:26.427Z,19.62
2016-10-24T02:37:37.597Z,19.63
2016-10-24T02:38:48.736Z,19.56
2016-10-24T02:39:59.913Z,19.63
2016-10-24T02:41:11.097Z,19.63
2016-10-24T02:42:22.239Z,19.65
2016-10-24T02:43:33.398Z,19.58
2016-10-24T02:44:44.569Z,19.58
2016-10-24T02:45:55.773Z,19.61
2016-10-24T02:47:06.968Z,19.51
2016-10-24T02:48:18.146Z,19.58
2016-10-24T02:49:29.358Z,19.56
2016-10-24T02:50:40.538Z,19.66
2016-10-24T02:51:51.681Z,19.62
2016-10-24T02:53:02.830Z,19.58
2016-10-24T02:54:14.016Z,19.62
2016-10-24T02:55:25.171Z,19.62
2016-10-24T02:56:36.303Z,19.65
2016-10-24T02:57:47.460Z,19.69
2016-10-24T02:58:58.665Z,19.59
2016-10-24T03:00:09.823Z,19.74
2016-10-24T03:01:20.971Z,19.77
2016-10-24T03:02:32.145Z,19.76
2016-10-24T03:03:43.313Z,19.78
2016-10-24T03:04:54.458Z,19.68
2016-10-24T03:06:05.649Z,19.77
2016-10-24T03:07:16.920Z,19.77
2016-10-24T03:08:28.100Z,19.77
2016-10-24T03:09:39.264Z,19.76
2016-10-24T03:10:50.434Z,19.8
2016-10-24T03:12:01.581Z,19.8
2016-10-24T03:13:13.322Z,19.73
2016-10-24T03:14:24.454Z,19.81
2016-10-24T03:15:35.599Z,19.74
2016-10-24T03:16:46.759Z,19.76
2016-10-24T03:17:58.480Z,19.73
2016-10-24T03:19:10.191Z,19.78
2016-10-24T03:20:21.391Z,19.83
2016-10-24T03:21:32.547Z,19.78
2016-10-24T03:22:43.736Z,19.74
2016-10-24T03:23:54.880Z,19.77
2016-10-24T03:25:06.047Z,19.71
2016-10-24T03:26:17.193Z,19.77
2016-10-24T03:27:28.349Z,19.76
2016-10-24T03:28:39.508Z,19.74
2016-10-24T03:29:50.667Z,19.83
2016-10-24T03:31:01.831Z,19.73
2016-10-24T03:32:13.243Z,19.74
2016-10-24T03:33:24.571Z,19.66
2016-10-24T03:34:35.724Z,19.69
2016-10-24T03:35:46.946Z,19.63
2016-10-24T03:36:58.118Z,19.71
2016-10-24T03:38:09.265Z,19.68
2016-10-24T03:39:20.404Z,19.61
2016-10-24T03:40:31.575Z,19.62
2016-10-24T03:41:42.738Z,19.62
2016-10-24T03:42:53.920Z,19.65
2016-10-24T03:44:05.083Z,19.69
2016-10-24T03:45:16.264Z,19.61
2016-10-24T03:46:27.425Z,19.62
2016-10-24T03:47:38.586Z,19.65
2016-10-24T03:48:49.748Z,19.61
2016-10-24T03:50:00.903Z,19.65
2016-10-24T03:51:12.081Z,19.61
2016-10-24T03:52:23.250Z,19.65
2016-10-24T03:53:34.400Z,19.77
2016-10-24T03:54:45.551Z,19.77
2016-10-24T03:55:56.698Z,19.74
2016-10-24T03:57:07.882Z,19.71
2016-10-24T03:58:19.042Z,19.74
2016-10-24T03:59:30.192Z,19.74
2016-10-24T04:00:41.368Z,19.77
2016-10-24T04:01:52.522Z,19.61
2016-10-24T04:03:03.692Z,19.61
2016-10-24T04:04:14.868Z,19.66
2016-10-24T04:05:26.024Z,19.66
2016-10-24T04:06:37.206Z,19.69
2016-10-24T04:07:48.358Z,19.61
2016-10-24T04:08:59.522Z,19.66
2016-10-24T04:10:10.725Z,19.68
2016-10-24T04:11:21.893Z,19.62
2016-10-24T04:12:33.613Z,19.63
2016-10-24T04:13:44.777Z,19.59
2016-10-24T04:14:55.976Z,19.62
2016-10-24T04:16:07.124Z,19.61
2016-10-24T04:17:18.296Z,19.73
2016-10-24T04:18:29.439Z,19.63
2016-10-24T04:19:40.612Z,19.66
2016-10-24T04:20:51.760Z,19.66
2016-10-24T04:22:02.953Z,19.65
2016-10-24T04:23:14.110Z,19.61
2016-10-24T04:24:25.301Z,19.63
2016-10-24T04:25:36.481Z,19.63
2016-10-24T04:26:47.665Z,19.61
2016-10-24T04:27:58.848Z,19.61
2016-10-24T04:29:10.018Z,19.66
2016-10-24T04:30:21.163Z,19.68
2016-10-24T04:31:32.323Z,19.74
2016-10-24T04:32:43.497Z,19.69
2016-10-24T04:33:54.685Z,19.62
2016-10-24T04:35:05.889Z,19.71
2016-10-24T04:36:17.624Z,19.73
2016-10-24T04:37:28.812Z,19.66
2016-10-24T04:38:39.977Z,19.69
2016-10-24T04:39:51.157Z,19.77
2016-10-24T04:41:02.321Z,19.78
2016-10-24T04:42:13.479Z,19.77
2016-10-24T04:43:24.636Z,19.77
2016-10-24T04:44:35.788Z,19.74
2016-10-24T04:45:46.978Z,19.74
2016-10-24T04:46:58.153Z,19.76
2016-10-24T04:48:09.309Z,19.77
2016-10-24T04:49:20.484Z,19.71
2016-10-24T04:50:31.638Z,19.68
2016-10-24T04:51:42.825Z,19.8
2016-10-24T04:52:53.990Z,19.77
2016-10-24T04:54:05.165Z,19.66
2016-10-24T04:55:16.369Z,19.66
2016-10-24T04:56:27.530Z,19.69
2016-10-24T04:57:38.690Z,19.73
2016-10-24T04:58:49.842Z,19.73
2016-10-24T05:00:00.997Z,19.74
2016-10-24T05:01:12.182Z,19.66
2016-10-24T05:02:23.367Z,19.73
2016-10-24T05:03:34.567Z,19.74
2016-10-24T05:04:45.701Z,19.59
2016-10-24T05:05:56.869Z,19.62
2016-10-24T05:07:08.037Z,19.69
2016-10-24T05:08:19.185Z,19.8
2016-10-24T05:09:30.952Z,19.69
2016-10-24T05:10:42.125Z,19.68
2016-10-24T05:11:53.286Z,19.65
2016-10-24T05:13:04.476Z,19.65
2016-10-24T05:14:15.672Z,19.55
2016-10-24T05:15:26.853Z,19.54
2016-10-24T05:16:38.003Z,19.56
2016-10-24T05:17:49.187Z,19.61
2016-10-24T05:19:00.339Z,19.55
2016-10-24T05:20:11.539Z,19.58
2016-10-24T05:21:22.687Z,19.56
2016-10-24T05:22:33.823Z,19.55
2016-10-24T05:23:45.015Z,19.61
2016-10-24T05:24:56.161Z,19.55
2016-10-24T05:26:07.872Z,19.56
2016-10-24T05:27:19.005Z,19.5
2016-10-24T05:28:30.191Z,19.43
2016-10-24T05:29:41.393Z,19.46
2016-10-24T05:30:52.549Z,19.46
2016-10-24T05:32:03.706Z,19.55
2016-10-24T05:33:14.867Z,19.46
2016-10-24T05:34:26.030Z,19.5
2016-10-24T05:35:37.206Z,19.48
2016-10-24T05:36:48.366Z,19.4
2016-10-24T05:37:59.518Z,19.5
2016-10-24T05:39:10.667Z,19.48
2016-10-24T05:40:21.810Z,19.5
2016-10-24T05:41:32.987Z,19.48
2016-10-24T05:42:44.174Z,19.43
2016-10-24T05:43:55.337Z,19.46
2016-10-24T05:45:06.525Z,19.47
2016-10-24T05:46:17.726Z,19.54
2016-10-24T05:47:28.864Z,19.37
2016-10-24T05:48:40.056Z,19.5
2016-10-24T05:49:51.814Z,19.39
2016-10-24T05:51:03.549Z,19.43
2016-10-24T05:52:14.709Z,19.47
2016-10-24T05:53:25.876Z,19.46
2016-10-24T05:54:37.107Z,19.48
2016-10-24T05:55:48.279Z,19.39
2016-10-24T05:56:59.450Z,19.44
2016-10-24T05:58:10.620Z,19.36
2016-10-24T05:59:21.814Z,19.33
2016-10-24T06:00:32.995Z,19.37
2016-10-24T06:01:44.151Z,19.37
2016-10-24T06:02:55.329Z,19.43
2016-10-24T06:04:06.487Z,19.33
2016-10-24T06:05:17.728Z,19.33
2016-10-24T06:06:28.882Z,19.37
2016-10-24T06:07:40.040Z,19.39
2016-10-24T06:08:51.207Z,19.36
2016-10-24T06:10:02.384Z,19.36
2016-10-24T06:11:13.519Z,19.36
2016-10-24T06:12:24.691Z,19.39
2016-10-24T06:13:35.877Z,19.37
2016-10-24T06:14:47.022Z,19.37
2016-10-24T06:15:58.162Z,19.33
2016-10-24T06:17:09.329Z,19.4
2016-10-24T06:18:20.479Z,19.41
2016-10-24T06:19:31.665Z,19.37
2016-10-24T06:20:42.858Z,19.39
2016-10-24T06:21:54.033Z,19.43
2016-10-24T06:23:05.195Z,19.37
2016-10-24T06:24:16.567Z,19.41
2016-10-24T06:25:27.772Z,19.39
2016-10-24T06:26:38.978Z,19.41
2016-10-24T06:27:50.171Z,19.46
2016-10-24T06:29:01.325Z,19.46
2016-10-24T06:30:12.500Z,19.5
2016-10-24T06:31:23.671Z,19.44
2016-10-24T06:32:34.893Z,19.36
2016-10-24T06:33:46.038Z,19.36
2016-10-24T06:34:57.204Z,19.39
2016-10-24T06:36:08.388Z,19.41
2016-10-24T06:37:19.559Z,19.4
2016-10-24T06:38:30.744Z,19.41
2016-10-24T06:39:42.180Z,19.47
2016-10-24T06:40:53.356Z,19.41
2016-10-24T06:42:04.519Z,19.46
2016-10-24T06:43:15.691Z,19.36
2016-10-24T06:44:26.849Z,19.48
2016-10-24T06:45:38.009Z,19.44
2016-10-24T06:46:49.140Z,19.5
2016-10-24T06:48:00.280Z,19.44
2016-10-24T06:49:11.471Z,19.54
2016-10-24T06:50:22.671Z,19.39
2016-10-24T06:51:33.854Z,19.46
2016-10-24T06:52:45.059Z,19.43
2016-10-24T06:53:56.209Z,19.43
2016-10-24T06:55:07.384Z,19.44
2016-10-24T06:56:19.115Z,19.5
2016-10-24T06:57:30.257Z,19.5
2016-10-24T06:58:41.423Z,19.48
2016-10-24T06:59:52.589Z,19.51
2016-10-24T07:01:03.802Z,19.61
2016-10-24T07:02:14.947Z,19.5
2016-10-24T07:03:26.088Z,19.47
2016-10-24T07:04:37.256Z,19.51
2016-10-24T07:05:48.421Z,19.48
2016-10-24T07:06:59.607Z,19.46
2016-10-24T07:08:10.815Z,19.54
2016-10-24T07:09:21.980Z,19.46
2016-10-24T07:10:33.147Z,19.36
2016-10-24T07:11:44.318Z,19.41
2016-10-24T07:12:55.474Z,19.5
2016-10-24T07:14:06.626Z,19.44
2016-10-24T07:15:17.769Z,19.48
2016-10-24T07:16:29.523Z,19.48
2016-10-24T07:17:40.690Z,19.46
2016-10-24T07:18:51.852Z,19.43
2016-10-24T07:20:03.061Z,19.41
2016-10-24T07:21:14.206Z,19.43
2016-10-24T07:22:25.397Z,19.29
2016-10-24T07:23:36.557Z,19.36
2016-10-24T07:24:47.702Z,19.4
2016-10-24T07:25:58.840Z,19.46
2016-10-24T07:27:09.996Z,19.41
2016-10-24T07:28:21.719Z,19.46
2016-10-24T07:29:32.850Z,19.46
2016-10-24T07:30:44.014Z,19.41
2016-10-24T07:31:55.159Z,19.29
2016-10-24T07:33:06.328Z,19.37
2016-10-24T07:34:17.533Z,19.39
2016-10-24T07:35:28.695Z,19.37
2016-10-24T07:36:39.832Z,19.31
2016-10-24T07:37:50.999Z,19.36
2016-10-24T07:39:02.140Z,19.39
2016-10-24T07:40:13.335Z,19.47
2016-10-24T07:41:24.509Z,19.33
2016-10-24T07:42:35.657Z,19.48
2016-10-24T07:43:46.873Z,19.43
2016-10-24T07:44:58.023Z,19.43
2016-10-24T07:46:09.173Z,19.26
2016-10-24T07:47:20.349Z,19.48
2016-10-24T07:48:31.518Z,19.43
2016-10-24T07:49:42.702Z,19.54
2016-10-24T07:50:53.851Z,19.54
2016-10-24T07:52:05.055Z,19.5
2016-10-24T07:53:16.210Z,19.54
2016-10-24T07:54:27.388Z,19.54
2016-10-24T07:55:38.538Z,19.51
2016-10-24T07:56:49.684Z,19.43
2016-10-24T07:58:00.820Z,19.54
2016-10-24T07:59:11.978Z,19.58
2016-10-24T08:00:23.143Z,19.54
2016-10-24T08:01:34.340Z,19.59
2016-10-24T08:02:45.528Z,19.61
2016-10-24T08:03:56.685Z,19.58
2016-10-24T08:05:07.879Z,19.62
2016-10-24T08:06:19.024Z,19.66
2016-10-24T08:07:30.215Z,19.61
2016-10-24T08:08:41.414Z,19.61
2016-10-24T08:09:52.574Z,19.66
2016-10-24T08:11:03.724Z,19.71
2016-10-24T08:12:14.876Z,19.69
2016-10-24T08:13:26.083Z,19.66
2016-10-24T08:14:37.231Z,19.59
2016-10-24T08:15:48.418Z,19.56
2016-10-24T08:16:59.598Z,19.65
2016-10-24T08:18:10.741Z,19.59
2016-10-24T08:19:21.899Z,19.58
2016-10-24T08:20:33.046Z,19.56
2016-10-24T08:21:44.216Z,19.62
2016-10-24T08:22:55.444Z,19.63
2016-10-24T08:24:06.606Z,19.51
2016-10-24T08:25:17.740Z,19.54
2016-10-24T08:26:28.902Z,19.54
2016-10-24T08:27:40.047Z,19.58
2016-10-24T08:28:51.200Z,19.62
2016-10-24T08:30:02.360Z,19.61
2016-10-24T08:31:13.502Z,19.59
2016-10-24T08:32:24.647Z,19.54
2016-10-24T08:33:35.823Z,19.58
2016-10-24T08:34:46.992Z,19.5
2016-10-24T08:35:58.234Z,19.51
2016-10-24T08:37:09.406Z,19.54
2016-10-24T08:38:21.113Z,19.59
2016-10-24T08:39:32.483Z,19.61
2016-10-24T08:40:43.662Z,19.68
2016-10-24T08:41:54.810Z,19.69
2016-10-24T08:43:06.524Z,19.76
2016-10-24T08:44:17.686Z,19.68
2016-10-24T08:45:28.839Z,19.76
2016-10-24T08:46:40.020Z,19.92
2016-10-24T08:47:51.169Z,19.81
2016-10-24T08:49:02.329Z,19.77
2016-10-24T08:50:13.500Z,19.8
2016-10-24T08:51:24.708Z,19.74
2016-10-24T08:52:36.440Z,19.74
2016-10-24T08:53:47.580Z,19.74
2016-10-24T08:54:58.804Z,19.74
2016-10-24T08:56:09.970Z,19.76
2016-10-24T08:57:21.108Z,19.87
2016-10-24T08:58:32.308Z,19.84
2016-10-24T08:59:43.479Z,19.83
2016-10-24T09:00:55.238Z,19.87
2016-10-24T09:02:06.400Z,20.02
2016-10-24T09:03:17.577Z,19.98
2016-10-24T09:04:28.744Z,19.98
2016-10-24T09:05:39.920Z,20.11
2016-10-24T09:06:51.071Z,20.13
2016-10-24T09:08:02.201Z,20.17
2016-10-24T09:09:13.372Z,20.11
2016-10-24T09:10:24.535Z,20.1
2016-10-24T09:11:35.708Z,20.16
2016-10-24T09:12:46.893Z,20.13
2016-10-24T09:13:58.074Z,20.08
2016-10-24T09:15:09.800Z,20.1
2016-10-24T09:16:20.982Z,20.1
2016-10-24T09:17:32.154Z,20.13
2016-10-24T09:18:43.333Z,20.05
2016-10-24T09:19:54.505Z,20.06
2016-10-24T09:21:05.687Z,20.1
2016-10-24T09:22:16.844Z,20.17
2016-10-24T09:23:28.000Z,20.17
2016-10-24T09:24:39.278Z,20.28
2016-10-24T09:25:50.620Z,20.32
2016-10-24T09:27:02.343Z,20.43
2016-10-24T09:28:13.499Z,20.48
2016-10-24T09:29:24.690Z,20.54
2016-10-24T09:30:35.925Z,20.55
2016-10-24T09:31:47.072Z,20.62
2016-10-24T09:32:58.237Z,20.69
2016-10-24T09:34:09.413Z,20.76
2016-10-24T09:35:20.624Z,20.79
2016-10-24T09:36:31.790Z,20.8
2016-10-24T09:37:42.955Z,20.85
2016-10-24T09:38:54.109Z,20.85
2016-10-24T09:40:05.262Z,20.84
2016-10-24T09:41:16.433Z,20.84
2016-10-24T09:42:27.637Z,20.85
2016-10-24T09:43:38.803Z,20.91
2016-10-24T09:44:49.995Z,21.06
2016-10-24T09:46:01.164Z,21.06
2016-10-24T09:47:12.371Z,21.14
2016-10-24T09:48:23.591Z,21.21
2016-10-24T09:49:34.773Z,21.35
2016-10-24T09:50:45.946Z,21.4
2016-10-24T09:51:57.140Z,21.44
2016-10-24T09:53:08.324Z,21.56
2016-10-24T09:54:19.492Z,21.62
2016-10-24T09:55:30.688Z,21.65
2016-10-24T09:56:41.840Z,21.62
2016-10-24T09:57:52.992Z,21.67
2016-10-24T09:59:04.141Z,21.67
2016-10-24T10:00:15.306Z,21.64
2016-10-24T10:01:26.490Z,21.75
2016-10-24T10:02:37.676Z,22.07
2016-10-24T10:03:48.805Z,22.21
2016-10-24T10:04:59.948Z,22.35
2016-10-24T10:06:11.155Z,22.4
2016-10-24T10:07:22.378Z,22.45
2016-10-24T10:08:33.548Z,22.43
2016-10-24T10:09:44.717Z,22.42
2016-10-24T10:10:55.867Z,22.46
2016-10-24T10:12:07.043Z,22.8
2016-10-24T10:13:18.231Z,23.38
2016-10-24T10:14:29.368Z,23.54
2016-10-24T10:15:40.533Z,23.46
2016-10-24T10:16:51.681Z,23.07
2016-10-24T10:18:02.866Z,22.85
2016-10-24T10:19:14.012Z,22.77
2016-10-24T10:20:25.192Z,22.75
2016-10-24T10:21:36.360Z,22.79
2016-10-24T10:22:47.533Z,22.8
2016-10-24T10:23:58.923Z,22.94
2016-10-24T10:25:10.086Z,23.28
2016-10-24T10:26:21.231Z,23.28
2016-10-24T10:27:32.394Z,23.01
2016-10-24T10:28:43.575Z,22.92
2016-10-24T10:29:55.440Z,22.95
2016-10-24T10:31:06.703Z,23.16
2016-10-24T10:32:17.863Z,23.33
2016-10-24T10:33:29.129Z,23.57
2016-10-24T10:34:40.474Z,23.79
2016-10-24T10:35:51.653Z,23.66
2016-10-24T10:37:02.847Z,23.72
2016-10-24T10:38:14.029Z,23.73
2016-10-24T10:39:25.216Z,23.68
2016-10-24T10:40:36.404Z,23.8
2016-10-24T10:41:47.621Z,23.94
2016-10-24T10:42:58.829Z,23.91
2016-10-24T10:44:10.007Z,24.2
2016-10-24T10:45:21.146Z,24.42
2016-10-24T10:46:32.317Z,24.52
2016-10-24T10:47:43.547Z,24.57
2016-10-24T10:48:56.795Z,24.57
2016-10-24T10:50:07.953Z,24.12
2016-10-24T10:51:19.143Z,23.94
2016-10-24T10:52:30.330Z,23.88
2016-10-24T10:53:41.485Z,23.54
2016-10-24T10:54:52.458Z,23.69
2016-10-24T10:56:03.680Z,23.72
2016-10-24T10:57:14.376Z,23.58
2016-10-24T10:58:25.099Z,23.75
2016-10-24T10:59:35.816Z,24.05
2016-10-24T11:00:47.074Z,24.21
2016-10-24T11:01:57.792Z,24.55
2016-10-24T11:03:08.528Z,25.06
2016-10-24T11:04:19.278Z,25.2
2016-10-24T11:05:30.009Z,24.93
2016-10-24T11:06:40.804Z,24.58
2016-10-24T11:07:51.601Z,24.65
2016-10-24T11:09:02.367Z,24.9
2016-10-24T11:10:13.064Z,25.17
2016-10-24T11:11:23.780Z,25.33
2016-10-24T11:12:34.490Z,25.5
2016-10-24T11:13:45.204Z,26.2
2016-10-24T11:14:55.948Z,26.5
2016-10-24T11:16:06.688Z,26.65
2016-10-24T11:17:17.410Z,26.63
2016-10-24T11:18:28.141Z,26.67
2016-10-24T11:19:38.846Z,26.47
2016-10-24T11:20:49.577Z,26.47
2016-10-24T11:22:00.302Z,27.02
2016-10-24T11:23:10.999Z,27.4
2016-10-24T11:24:21.733Z,27.9
2016-10-24T11:25:32.512Z,28.21
2016-10-24T11:26:43.245Z,28.29
2016-10-24T11:27:54.505Z,28.24
2016-10-24T11:29:05.360Z,28.31
2016-10-24T11:30:16.695Z,28.21
2016-10-24T11:31:27.952Z,27.79
2016-10-24T11:32:38.684Z,27.88
2016-10-24T11:33:49.413Z,27.9
2016-10-24T11:35:00.149Z,27.77
2016-10-24T11:36:10.894Z,27.6
2016-10-24T11:37:21.720Z,27.51
2016-10-24T11:38:32.978Z,27.77
2016-10-24T11:39:44.199Z,27.82
2016-10-24T11:40:54.901Z,27.94
2016-10-24T11:42:05.645Z,27.96
2016-10-24T11:43:16.391Z,28.02
2016-10-24T11:44:27.090Z,27.92
2016-10-24T11:45:37.835Z,27.85
2016-10-24T11:46:48.535Z,27.69
2016-10-24T11:47:59.247Z,27.12
2016-10-24T11:49:09.971Z,27.02
2016-10-24T11:50:20.722Z,26.6
2016-10-24T11:51:31.461Z,26.44
2016-10-24T11:52:42.704Z,26.8
2016-10-24T11:53:53.421Z,27.06
2016-10-24T11:55:04.149Z,27.47
2016-10-24T11:56:14.907Z,27.74
2016-10-24T11:57:25.629Z,28.12
2016-10-24T11:58:36.414Z,28.15
2016-10-24T11:59:47.115Z,27.79
2016-10-24T12:00:58.331Z,27.34
2016-10-24T12:02:09.074Z,27.17
2016-10-24T12:03:19.796Z,26.81
2016-10-24T12:04:30.529Z,26.72
2016-10-24T12:05:41.276Z,26.6
2016-10-24T12:06:52.030Z,26.85
2016-10-24T12:08:03.303Z,27.43
2016-10-24T12:09:14.038Z,28.04
2016-10-24T12:10:24.766Z,28.27
2016-10-24T12:11:36.016Z,28.61
2016-10-24T12:12:46.740Z,28.96
2016-10-24T12:13:57.469Z,29.21
2016-10-24T12:15:08.184Z,29.65
2016-10-24T12:16:18.908Z,29.82
2016-10-24T12:17:29.653Z,30.15
2016-10-24T12:18:40.375Z,30.08
2016-10-24T12:19:51.069Z,29.95
2016-10-24T12:21:01.797Z,29.87
2016-10-24T12:22:12.513Z,29.55
2016-10-24T12:23:23.256Z,29.53
2016-10-24T12:24:33.984Z,29.87
2016-10-24T12:25:44.716Z,29.95
2016-10-24T12:26:55.503Z,30.34
2016-10-24T12:28:06.229Z,30.67
2016-10-24T12:29:16.968Z,30.89
2016-10-24T12:30:28.258Z,30.88
2016-10-24T12:31:38.957Z,30.86
2016-10-24T12:32:49.676Z,30.98
2016-10-24T12:34:00.447Z,30.98
2016-10-24T12:35:12.855Z,30.86
2016-10-24T12:36:23.586Z,30.64
2016-10-24T12:37:34.333Z,30.43
2016-10-24T12:38:45.132Z,30.01
2016-10-24T12:39:55.918Z,29.71
2016-10-24T12:41:07.173Z,29.79
2016-10-24T12:42:17.931Z,30.23
2016-10-24T12:43:28.665Z,30.37
2016-10-24T12:44:39.396Z,29.97
2016-10-24T12:45:50.114Z,29.73
2016-10-24T12:47:00.836Z,29.45
2016-10-24T12:48:12.083Z,29.28
2016-10-24T12:49:22.833Z,29.39
2016-10-24T12:50:33.612Z,29.58
2016-10-24T12:51:44.318Z,29.42
2016-10-24T12:52:55.032Z,29.11
2016-10-24T12:54:05.791Z,28.67
2016-10-24T12:55:16.538Z,28.24
2016-10-24T12:56:27.245Z,28.03
2016-10-24T12:57:38.673Z,27.88
2016-10-24T12:58:49.401Z,28.15
2016-10-24T13:00:00.131Z,28.73
2016-10-24T13:01:11.366Z,28.68
2016-10-24T13:02:22.108Z,28.76
2016-10-24T13:03:32.832Z,28.98
2016-10-24T13:04:43.554Z,28.9
2016-10-24T13:05:54.825Z,28.76
2016-10-24T13:07:06.102Z,28.61
2016-10-24T13:08:16.822Z,28.9
2016-10-24T13:09:27.585Z,29.08
2016-10-24T13:10:38.840Z,29.14
2016-10-24T13:11:49.565Z,29.31
2016-10-24T13:13:00.316Z,28.89
2016-10-24T13:14:11.182Z,28.85
2016-10-24T13:15:21.961Z,28.86
2016-10-24T13:16:33.284Z,28.36
2016-10-24T13:17:43.994Z,28.49
2016-10-24T13:18:54.704Z,28.36
2016-10-24T13:20:05.454Z,28.54
2016-10-24T13:21:16.701Z,28.71
2016-10-24T13:22:27.430Z,28.24
2016-10-24T13:23:38.165Z,28.03
2016-10-24T13:24:48.888Z,28.31
2016-10-24T13:25:59.613Z,28.44
2016-10-24T13:27:10.307Z,28.44
2016-10-24T13:28:21.029Z,28.74
2016-10-24T13:29:31.768Z,29
2016-10-24T13:30:42.493Z,29.48
2016-10-24T13:31:53.183Z,29.58
2016-10-24T13:33:03.878Z,29.48
2016-10-24T13:34:14.743Z,29.27
2016-10-24T13:35:25.972Z,28.98
2016-10-24T13:36:36.689Z,28.67
2016-10-24T13:37:47.990Z,28.43
2016-10-24T13:38:58.682Z,28.76
2016-10-24T13:40:09.419Z,29.09
2016-10-24T13:41:20.163Z,29.23
2016-10-24T13:42:30.879Z,29.18
2016-10-24T13:43:41.624Z,29.33
2016-10-24T13:44:52.322Z,28.76
2016-10-24T13:46:03.608Z,28.58
2016-10-24T13:47:15.354Z,28.33
2016-10-24T13:48:26.083Z,28.36
2016-10-24T13:49:36.800Z,28.56
2016-10-24T13:50:47.501Z,28.98
2016-10-24T13:51:58.231Z,29
2016-10-24T13:53:08.990Z,28.73
2016-10-24T13:54:19.721Z,28.59
2016-10-24T13:55:30.474Z,28.85
2016-10-24T13:56:41.187Z,28.98
2016-10-24T13:57:51.910Z,29.45
2016-10-24T13:59:02.631Z,30.1
2016-10-24T14:00:14.072Z,30.27
2016-10-24T14:01:24.827Z,30.61
2016-10-24T14:02:35.545Z,30.65
2016-10-24T14:03:46.855Z,30.79
2016-10-24T14:04:57.595Z,30.72
2016-10-24T14:06:08.318Z,30.73
2016-10-24T14:07:19.551Z,30.26
2016-10-24T14:08:30.300Z,30.43
2016-10-24T14:09:41.022Z,30.75
2016-10-24T14:10:51.729Z,31.28
2016-10-24T14:12:02.453Z,31.73
2016-10-24T14:13:13.176Z,32
2016-10-24T14:14:23.896Z,32.18
2016-10-24T14:15:34.613Z,32.01
2016-10-24T14:16:45.905Z,32.21
2016-10-24T14:17:56.668Z,32.38
2016-10-24T14:19:07.406Z,31.91
2016-10-24T14:20:18.170Z,31.57
2016-10-24T14:21:29.449Z,31.51
2016-10-24T14:22:40.715Z,31.8
2016-10-24T14:23:51.490Z,32.26
2016-10-24T14:25:02.729Z,32.04
2016-10-24T14:26:13.436Z,32.04
2016-10-24T14:27:24.145Z,31.68
2016-10-24T14:28:34.867Z,31.32
2016-10-24T14:29:45.618Z,31.48
2016-10-24T14:30:56.326Z,31.73
2016-10-24T14:32:07.585Z,31.93
2016-10-24T14:33:18.350Z,32.04
2016-10-24T14:34:29.088Z,32.26
2016-10-24T14:35:39.818Z,32.45
2016-10-24T14:36:50.560Z,32.59
2016-10-24T14:38:01.273Z,32.69
2016-10-24T14:39:12.007Z,33.15
2016-10-24T14:40:22.717Z,33.47
2016-10-24T14:41:34.002Z,33.91
2016-10-24T14:42:44.723Z,34.28
2016-10-24T14:43:55.720Z,34.73
2016-10-24T14:45:06.971Z,34.19
2016-10-24T14:46:17.726Z,33.54
2016-10-24T14:47:28.487Z,32.44
2016-10-24T14:48:39.763Z,31.7
2016-10-24T14:49:50.500Z,31.86
2016-10-24T14:51:02.248Z,32.23
2016-10-24T14:52:12.975Z,32.85
2016-10-24T14:53:23.693Z,33.82
2016-10-24T14:54:34.454Z,34.3
2016-10-24T14:55:45.698Z,34.91
2016-10-24T14:56:56.475Z,35.58
2016-10-24T14:58:07.209Z,35.22
2016-10-24T14:59:17.926Z,34.81
2016-10-24T15:00:28.670Z,33.98
2016-10-24T15:01:39.402Z,33.28
2016-10-24T15:02:50.141Z,33.01
2016-10-24T15:04:00.857Z,32.44
2016-10-24T15:05:11.586Z,32.18
2016-10-24T15:06:22.309Z,32.29
2016-10-24T15:07:33.025Z,32.28
2016-10-24T15:08:43.777Z,32.38
2016-10-24T15:09:54.515Z,32.48
2016-10-24T15:11:05.272Z,32.93
2016-10-24T15:12:16.049Z,33.01
2016-10-24T15:13:26.883Z,33.73
2016-10-24T15:14:37.665Z,33.82
2016-10-24T15:15:48.476Z,34.35
2016-10-24T15:16:59.199Z,34.82
2016-10-24T15:18:09.919Z,34.49
2016-10-24T15:19:20.652Z,34.72